Airfield :
LOGIN :

Register | Disclaimer

   EN    FR    IT 

 










Legend :    VFR   Marginal VFR   IFR   Intensive IFR   Very Intensive IFR
Visi :
Ceiling :
>= 8 km
>= 3000ft
5 to 8 km
1000 to 3000 ft
1500m to 5 km
500 to 1000 ft
800 to 1500m
200 to 500 ft
< 800m
< 200 ft
Symbols :   Thunderstorms  Fog  Heavy snow  Heavy precipitations  Wind > 20 kt
SIGMETs :     Misc.  Thunderstorms  Icing  Turbulence  Mountain Waves  Volcanic Ashes






- Airport Elevation : 776 ft
- IATA code : RMS


ETAR - Ramstein Air Base

CURRENT METAR :
  • 121356Z 22009KT 9999 CLR 35/14 A2992 RMK AO2A SLP122 T03490142 FZRANO $

EXPIRED METARs :
  • 121256Z VRB06KT 9999 CLR 35/14 A2992 RMK SLP121 T03470140 FZRANO $
  • 121156Z 19009KT 9999 FEW070 34/16 A2995 RMK AO2A SLP130 70001 T03360155 10337 20198 57014 FZRANO $
  • 121130Z AUTO 12005KT 9999 -RA FEW070 32/17 A2996 RMK AO2 RAB30 SLP135 FZRANO $

TAF TAF ETAR
Valid from the 12 at 10:00 until the 13 at 16:00 UTC


121000Z 1210/1316 10012KT 9999 FEW100 QNH2996INS
TEMPO 1211/1214 10012G20KT
BECMG 1214/1215 10012KT 9999 FEW060 SCT100 QNH2995INS
TEMPO 1215/1218 22015G25KT 8000 -TSRA BKN060CB
BECMG 1218/1219 VRB06KT 9999 FEW050 SCT100 QNH2993INS
TEMPO 1305/1308 22015G25KT 8000 -TSRA BKN050CB
BECMG 1309/1310 20012KT 9999 BKN100 QNH2992INS TX33/1214Z TN18/1306Z



MET'MAP, your aeronautical weather chart ! - Copyright ORBIFLY December 2007 - Disclaimer

ORBIFLY MET'MAP TEAM :

Programming & Development : Alexandra Zaïnal
Concept & original design : Baudouin d'Aumeries
Assistance for programming : Marc-Olivier Méhu
Technical & hardware support : Manuel Goepfert

Contact : metmap@orbifly.com




SOURCES & CREDITS :

   NOAA